createdAt,value
2023-05-22T00:01:15.300Z,4.07
2023-05-22T00:03:42.679Z,5.00
2023-05-22T00:06:11.967Z,4.37
2023-05-22T00:08:39.047Z,4.43
2023-05-22T00:11:06.452Z,4.97
2023-05-22T00:13:33.465Z,4.50
2023-05-22T00:16:00.599Z,5.18
2023-05-22T00:18:28.032Z,4.45
2023-05-22T00:20:55.391Z,4.43
2023-05-22T00:23:22.502Z,3.80
2023-05-22T00:25:50.776Z,4.05
2023-05-22T00:28:17.873Z,4.62
2023-05-22T00:30:45.817Z,3.83
2023-05-22T00:33:13.339Z,4.82
2023-05-22T00:35:40.652Z,6.05
2023-05-22T00:38:08.339Z,4.80
2023-05-22T00:40:36.145Z,4.03
2023-05-22T00:43:08.315Z,3.97
2023-05-22T00:45:36.763Z,4.87
2023-05-22T00:48:04.048Z,4.05
2023-05-22T00:50:31.226Z,4.30
2023-05-22T00:52:58.544Z,3.90
2023-05-22T00:55:25.925Z,4.28
2023-05-22T00:57:53.121Z,3.87
2023-05-22T01:00:21.429Z,3.78
2023-05-22T01:02:48.554Z,3.97
2023-05-22T01:05:18.142Z,3.95
2023-05-22T01:07:46.493Z,3.95
2023-05-22T01:10:13.670Z,3.42
2023-05-22T01:12:44.172Z,3.58
2023-05-22T01:15:31.640Z,4.10
2023-05-22T01:18:01.407Z,3.95
2023-05-22T01:20:36.973Z,4.00
2023-05-22T01:23:04.176Z,3.78
2023-05-22T01:25:47.571Z,4.12
2023-05-22T01:28:39.628Z,3.47
2023-05-22T01:31:14.338Z,3.30
2023-05-22T01:33:49.207Z,2.92
2023-05-22T01:36:22.447Z,2.78
2023-05-22T01:38:50.176Z,3.37
2023-05-22T01:41:19.294Z,3.00
2023-05-22T01:43:48.059Z,3.00
2023-05-22T01:46:15.225Z,2.60
2023-05-22T01:48:42.702Z,3.37
2023-05-22T01:51:18.229Z,3.12
2023-05-22T01:54:18.168Z,3.03
2023-05-22T01:56:52.267Z,3.30
2023-05-22T02:00:02.408Z,3.47
2023-05-22T02:02:32.150Z,3.15
2023-05-22T02:05:03.903Z,3.35
2023-05-22T02:07:34.074Z,3.03
2023-05-22T02:10:03.205Z,2.60
2023-05-22T02:12:31.031Z,3.90
2023-05-22T02:14:58.330Z,3.65
2023-05-22T02:17:27.862Z,3.85
2023-05-22T02:19:55.049Z,3.62
2023-05-22T02:22:22.181Z,3.97
2023-05-22T02:24:50.201Z,4.45
2023-05-22T02:27:17.792Z,3.75
2023-05-22T02:29:44.973Z,3.47
2023-05-22T02:32:12.427Z,3.60
2023-05-22T02:34:39.605Z,3.05
2023-05-22T02:37:06.699Z,4.90
2023-05-22T02:39:34.137Z,2.83
2023-05-22T02:44:29.990Z,2.85
2023-05-22T02:46:57.569Z,3.22
2023-05-22T02:49:24.710Z,3.00
2023-05-22T02:51:51.957Z,3.28
2023-05-22T02:54:19.376Z,3.75
2023-05-22T02:56:46.510Z,3.85
2023-05-22T02:59:13.674Z,4.57
2023-05-22T03:01:41.139Z,5.10
2023-05-22T03:04:08.354Z,4.15
2023-05-22T03:06:37.153Z,4.20
2023-05-22T03:09:04.688Z,4.05
2023-05-22T03:11:32.348Z,3.40
2023-05-22T03:13:59.582Z,3.50
2023-05-22T03:16:27.099Z,3.15
2023-05-22T03:19:09.366Z,3.53
2023-05-22T03:21:37.123Z,3.37
2023-05-22T03:24:05.106Z,3.95
2023-05-22T03:26:33.301Z,3.47
2023-05-22T03:29:01.239Z,3.42
2023-05-22T03:31:33.222Z,3.10
2023-05-22T03:34:02.025Z,3.60
2023-05-22T03:36:32.336Z,2.80
2023-05-22T03:39:00.284Z,2.72
2023-05-22T03:41:27.860Z,2.58
2023-05-22T03:43:55.229Z,4.15
2023-05-22T03:46:23.021Z,3.12
2023-05-22T03:48:50.973Z,3.50
2023-05-22T03:51:19.978Z,2.90
2023-05-22T03:53:47.426Z,2.37
2023-05-22T03:56:14.959Z,2.70
2023-05-22T03:58:42.033Z,3.22
2023-05-22T04:01:10.176Z,3.40
2023-05-22T04:03:37.945Z,2.97
2023-05-22T04:06:05.874Z,3.35
2023-05-22T04:08:33.377Z,3.15
2023-05-22T04:11:00.823Z,3.17
2023-05-22T04:13:28.197Z,2.78
2023-05-22T04:15:56.873Z,2.72
2023-05-22T04:18:24.333Z,3.35
2023-05-22T04:20:51.983Z,2.80
2023-05-22T04:23:19.241Z,3.08
2023-05-22T04:25:48.127Z,2.47
2023-05-22T04:28:17.688Z,2.85
2023-05-22T04:30:46.871Z,2.70
2023-05-22T04:33:14.635Z,2.97
2023-05-22T04:35:42.389Z,3.30
2023-05-22T04:38:09.718Z,3.40
2023-05-22T04:40:38.080Z,2.80
2023-05-22T04:43:05.473Z,2.47
2023-05-22T04:45:32.994Z,2.50
2023-05-22T04:48:02.639Z,3.00
2023-05-22T04:50:32.804Z,3.37
2023-05-22T04:53:00.571Z,4.22
2023-05-22T04:55:27.890Z,3.42
2023-05-22T04:57:56.386Z,3.47
2023-05-22T05:00:26.563Z,2.90
2023-05-22T05:02:53.832Z,2.62
2023-05-22T05:05:21.821Z,3.55
2023-05-22T05:07:50.335Z,2.20
2023-05-22T05:10:18.261Z,2.85
2023-05-22T05:12:45.476Z,2.72
2023-05-22T05:15:12.947Z,3.50
2023-05-22T05:17:40.117Z,2.20
2023-05-22T05:20:08.506Z,2.45
2023-05-22T05:22:37.387Z,3.12
2023-05-22T05:25:05.611Z,2.40
2023-05-22T05:27:33.327Z,2.83
2023-05-22T05:30:01.983Z,2.62
2023-05-22T05:32:30.994Z,2.85
2023-05-22T05:34:58.080Z,3.83
2023-05-22T05:37:26.119Z,2.78
2023-05-22T05:39:54.146Z,4.05
2023-05-22T05:42:21.752Z,2.20
2023-05-22T05:44:49.507Z,5.82
2023-05-22T05:47:17.868Z,5.00
2023-05-22T05:49:44.966Z,4.30
2023-05-22T05:52:12.738Z,4.90
2023-05-22T05:54:46.493Z,3.67
2023-05-22T05:57:15.013Z,2.30
2023-05-22T05:59:42.464Z,4.12
2023-05-22T06:02:09.938Z,3.78
2023-05-22T06:04:37.281Z,2.83
2023-05-22T06:07:05.112Z,3.12
2023-05-22T06:09:33.465Z,2.67
2023-05-22T06:12:02.718Z,2.65
2023-05-22T06:14:30.713Z,4.07
2023-05-22T06:16:59.428Z,3.40
2023-05-22T06:19:26.977Z,3.25
2023-05-22T06:21:54.635Z,3.10
2023-05-22T06:24:22.045Z,3.00
2023-05-22T06:26:50.136Z,2.95
2023-05-22T06:29:17.381Z,2.58
2023-05-22T06:31:45.377Z,2.97
2023-05-22T06:34:13.061Z,5.15
2023-05-22T06:36:40.701Z,2.80
2023-05-22T06:39:08.734Z,2.87
2023-05-22T06:41:38.513Z,3.42
2023-05-22T06:44:07.151Z,2.42
2023-05-22T06:46:38.070Z,2.90
2023-05-22T06:49:06.289Z,3.60
2023-05-22T06:51:34.327Z,2.75
2023-05-22T06:54:04.320Z,3.12
2023-05-22T06:56:31.971Z,3.40
2023-05-22T06:58:59.486Z,3.00
2023-05-22T07:01:29.392Z,2.90
2023-05-22T07:04:00.427Z,3.42
2023-05-22T07:06:28.838Z,2.65
2023-05-22T07:08:56.413Z,3.17
2023-05-22T07:11:24.984Z,2.40
2023-05-22T07:13:52.689Z,2.65
2023-05-22T07:16:19.802Z,2.90
2023-05-22T07:18:47.876Z,3.03
2023-05-22T07:21:15.410Z,3.00
2023-05-22T07:23:43.190Z,2.80
2023-05-22T07:26:10.945Z,3.05
2023-05-22T07:28:39.477Z,3.00
2023-05-22T07:31:07.372Z,3.92
2023-05-22T07:33:34.448Z,3.62
2023-05-22T07:36:02.130Z,3.28
2023-05-22T07:38:29.448Z,3.40
2023-05-22T07:40:56.889Z,3.05
2023-05-22T07:43:25.078Z,2.30
2023-05-22T07:45:54.304Z,3.28
2023-05-22T07:48:23.174Z,3.28
2023-05-22T07:50:50.625Z,3.78
2023-05-22T07:53:18.342Z,3.97
2023-05-22T07:55:45.682Z,4.25
2023-05-22T07:58:14.597Z,3.80
2023-05-22T08:00:42.562Z,3.00
2023-05-22T08:03:10.066Z,3.75
2023-05-22T08:05:37.192Z,3.60
2023-05-22T08:08:04.811Z,3.58
2023-05-22T08:10:46.561Z,3.08
2023-05-22T08:13:19.550Z,4.15
2023-05-22T08:15:46.935Z,3.42
2023-05-22T08:18:14.284Z,3.25
2023-05-22T08:20:41.689Z,3.75
2023-05-22T08:23:09.276Z,3.60
2023-05-22T08:25:36.371Z,4.22
2023-05-22T08:28:03.732Z,3.33
2023-05-22T08:30:31.186Z,3.12
2023-05-22T08:32:58.235Z,3.50
2023-05-22T08:35:25.219Z,3.28
2023-05-22T08:37:53.004Z,3.70
2023-05-22T08:40:21.355Z,2.97
2023-05-22T08:42:51.497Z,2.80
2023-05-22T08:45:19.859Z,3.05
2023-05-22T08:47:53.283Z,2.87
2023-05-22T08:50:21.070Z,3.30
2023-05-22T08:52:51.937Z,3.87
2023-05-22T08:55:19.704Z,3.55
2023-05-22T08:57:47.413Z,3.67
2023-05-22T09:00:15.636Z,3.47
2023-05-22T09:02:42.923Z,3.15
2023-05-22T09:05:10.356Z,3.92
2023-05-22T09:07:39.163Z,3.65
2023-05-22T09:10:07.572Z,3.15
2023-05-22T09:12:35.035Z,3.60
2023-05-22T09:15:10.448Z,3.17
2023-05-22T09:17:41.329Z,3.85
2023-05-22T09:20:10.508Z,3.85
2023-05-22T09:22:38.417Z,3.55
2023-05-22T09:25:06.970Z,3.20
2023-05-22T09:27:34.498Z,3.97
2023-05-22T09:30:01.913Z,3.55
2023-05-22T09:32:32.113Z,3.03
2023-05-22T09:35:04.239Z,3.37
2023-05-22T09:37:36.428Z,3.07
2023-05-22T09:40:07.664Z,3.30
2023-05-22T09:42:35.831Z,3.47
2023-05-22T09:45:07.934Z,2.47
2023-05-22T09:47:35.869Z,2.80
2023-05-22T09:50:06.521Z,2.85
2023-05-22T09:52:35.062Z,2.70
2023-05-22T09:55:05.115Z,3.10
2023-05-22T09:57:33.990Z,2.60
2023-05-22T10:00:04.621Z,3.67
2023-05-22T10:02:43.852Z,2.78
2023-05-22T10:05:12.920Z,3.27
2023-05-22T10:08:05.316Z,2.45
2023-05-22T10:10:34.562Z,2.92
2023-05-22T10:13:03.700Z,3.28
2023-05-22T10:15:31.865Z,2.60
2023-05-22T10:18:00.748Z,3.03
2023-05-22T10:20:29.550Z,3.40
2023-05-22T10:22:57.221Z,2.92
2023-05-22T10:25:25.990Z,3.15
2023-05-22T10:27:54.974Z,3.08
2023-05-22T10:30:40.549Z,3.85
2023-05-22T10:33:12.866Z,2.97
2023-05-22T10:35:51.348Z,2.42
2023-05-22T10:38:37.390Z,3.17
2023-05-22T10:41:04.974Z,2.60
2023-05-22T10:43:32.839Z,2.70
2023-05-22T10:46:04.519Z,3.62
2023-05-22T10:48:39.306Z,3.00
2023-05-22T10:51:08.504Z,2.90
2023-05-22T10:53:36.332Z,3.05
2023-05-22T10:56:14.255Z,2.70
2023-05-22T10:58:44.920Z,3.03
2023-05-22T11:01:20.477Z,2.92
2023-05-22T11:03:50.943Z,3.30
2023-05-22T11:06:31.409Z,2.90
2023-05-22T11:08:59.092Z,3.25
2023-05-22T11:11:27.816Z,3.72
2023-05-22T11:14:16.304Z,3.83
2023-05-22T11:16:43.932Z,3.62
2023-05-22T11:19:22.739Z,3.80
2023-05-22T11:21:50.658Z,3.28
2023-05-22T11:24:18.316Z,4.10
2023-05-22T11:27:01.659Z,3.35
2023-05-22T11:29:30.680Z,3.62
2023-05-22T11:31:59.388Z,3.47
2023-05-22T11:34:26.587Z,3.17
2023-05-22T11:37:00.416Z,2.97
2023-05-22T11:41:55.447Z,2.80
2023-05-22T11:44:22.738Z,3.37
2023-05-22T11:46:50.010Z,3.50
2023-05-22T11:49:17.580Z,2.92
2023-05-22T11:51:45.090Z,3.03
2023-05-22T11:54:12.254Z,2.92
2023-05-22T11:56:39.631Z,3.12
2023-05-22T11:59:07.518Z,3.85
2023-05-22T12:01:36.372Z,3.58
2023-05-22T12:04:04.790Z,3.58
2023-05-22T12:06:33.463Z,3.10
2023-05-22T12:09:01.412Z,3.10
2023-05-22T12:11:28.893Z,3.90
2023-05-22T12:14:04.165Z,3.25
2023-05-22T12:16:36.595Z,3.50
2023-05-22T12:19:11.297Z,3.90
2023-05-22T12:21:39.518Z,3.40
2023-05-22T12:24:06.790Z,3.00
2023-05-22T12:26:33.926Z,2.97
2023-05-22T12:29:01.372Z,2.75
2023-05-22T12:31:28.630Z,3.55
2023-05-22T12:33:56.487Z,3.78
2023-05-22T12:36:40.643Z,3.42
2023-05-22T12:39:17.143Z,3.53
2023-05-22T12:41:47.428Z,3.58
2023-05-22T12:44:16.419Z,3.90
2023-05-22T12:46:43.533Z,5.07
2023-05-22T12:49:11.253Z,6.95
2023-05-22T12:51:38.400Z,3.22
2023-05-22T12:54:05.792Z,3.12
2023-05-22T12:56:33.245Z,4.22
2023-05-22T12:59:00.255Z,4.25
2023-05-22T13:01:27.490Z,3.40
2023-05-22T13:03:54.848Z,2.83
2023-05-22T13:06:22.016Z,4.03
2023-05-22T13:08:49.034Z,2.75
2023-05-22T13:11:16.369Z,2.80
2023-05-22T13:13:43.481Z,3.03
2023-05-22T13:16:11.168Z,2.87
2023-05-22T13:18:38.492Z,3.50
2023-05-22T13:21:06.281Z,3.50
2023-05-22T13:23:33.388Z,2.92
2023-05-22T13:26:02.260Z,2.90
2023-05-22T13:28:29.523Z,3.35
2023-05-22T13:30:56.761Z,2.92
2023-05-22T13:33:25.793Z,3.00
2023-05-22T13:35:52.932Z,3.62
2023-05-22T13:38:20.065Z,3.62
2023-05-22T13:40:48.663Z,2.72
2023-05-22T13:43:16.138Z,3.10
2023-05-22T13:45:43.280Z,3.30
2023-05-22T13:48:11.316Z,3.35
2023-05-22T13:50:38.422Z,2.83
2023-05-22T13:53:05.545Z,2.90
2023-05-22T13:55:32.993Z,3.25
2023-05-22T13:58:00.047Z,3.28
2023-05-22T14:00:27.161Z,4.37
2023-05-22T14:02:54.622Z,2.72
2023-05-22T14:05:21.953Z,3.28
2023-05-22T14:07:49.118Z,3.05
2023-05-22T14:10:16.606Z,2.67
2023-05-22T14:12:43.683Z,3.05
2023-05-22T14:15:11.020Z,3.35
2023-05-22T14:17:38.731Z,3.35
2023-05-22T14:20:07.249Z,3.15
2023-05-22T14:22:38.634Z,3.35
2023-05-22T14:25:12.107Z,3.40
2023-05-22T14:27:39.456Z,3.60
2023-05-22T14:30:13.395Z,2.67
2023-05-22T14:32:41.099Z,3.08
2023-05-22T14:35:08.567Z,3.45
2023-05-22T14:37:36.802Z,3.55
2023-05-22T14:40:04.883Z,3.67
2023-05-22T14:42:32.124Z,3.37
2023-05-22T14:44:59.478Z,2.90
2023-05-22T14:47:27.010Z,3.45
2023-05-22T14:49:57.603Z,3.25
2023-05-22T14:52:30.446Z,2.95
2023-05-22T14:54:57.529Z,2.70
2023-05-22T14:57:24.629Z,3.00
2023-05-22T14:59:52.027Z,2.90
2023-05-22T15:02:19.184Z,4.40
2023-05-22T15:04:46.424Z,3.47
2023-05-22T15:07:13.933Z,2.87
2023-05-22T15:09:41.385Z,3.00
2023-05-22T15:12:08.564Z,2.90
2023-05-22T15:14:35.999Z,3.17
2023-05-22T15:17:03.469Z,3.50
2023-05-22T15:19:30.644Z,3.45
2023-05-22T15:22:05.777Z,3.72
2023-05-22T15:24:44.310Z,2.97
2023-05-22T15:27:12.053Z,3.22
2023-05-22T15:29:39.224Z,3.40
2023-05-22T15:32:06.592Z,3.45
2023-05-22T15:34:34.037Z,3.03
2023-05-22T15:37:01.113Z,2.72
2023-05-22T15:39:28.192Z,3.20
2023-05-22T15:42:05.748Z,3.17
2023-05-22T15:44:33.801Z,3.37
2023-05-22T15:47:01.283Z,3.75
2023-05-22T15:49:31.080Z,3.37
2023-05-22T15:51:58.898Z,3.35
2023-05-22T15:54:26.304Z,3.72
2023-05-22T15:56:53.402Z,3.15
2023-05-22T15:59:20.508Z,3.53
2023-05-22T16:01:47.999Z,3.15
2023-05-22T16:04:15.537Z,3.97
2023-05-22T16:06:42.836Z,2.87
2023-05-22T16:09:10.094Z,3.30
2023-05-22T16:11:37.914Z,3.12
2023-05-22T16:14:05.043Z,3.03
2023-05-22T16:16:32.220Z,3.05
2023-05-22T16:18:59.786Z,3.33
2023-05-22T16:21:26.947Z,3.95
2023-05-22T16:23:54.017Z,3.75
2023-05-22T16:26:21.885Z,3.17
2023-05-22T16:28:49.061Z,3.25
2023-05-22T16:31:19.286Z,3.15
2023-05-22T16:33:47.059Z,4.18
2023-05-22T16:36:14.152Z,4.47
2023-05-22T16:38:41.940Z,3.83
2023-05-22T16:41:09.394Z,14.93
2023-05-22T16:43:37.725Z,5.62
2023-05-22T16:46:07.832Z,5.18
2023-05-22T16:48:38.263Z,4.15
2023-05-22T16:51:05.585Z,4.75
2023-05-22T16:53:32.706Z,4.97
2023-05-22T16:56:00.339Z,4.87
2023-05-22T16:58:27.623Z,5.28
2023-05-22T17:00:54.904Z,5.25
2023-05-22T17:03:22.473Z,4.40
2023-05-22T17:05:49.796Z,4.35
2023-05-22T17:08:17.150Z,4.50
2023-05-22T17:10:44.544Z,5.47
2023-05-22T17:13:19.624Z,4.53
2023-05-22T17:15:51.482Z,4.70
2023-05-22T17:18:22.369Z,6.45
2023-05-22T17:20:51.052Z,6.32
2023-05-22T17:23:18.416Z,5.95
2023-05-22T17:25:48.644Z,6.20
2023-05-22T17:28:16.515Z,6.53
2023-05-22T17:30:45.330Z,6.55
2023-05-22T17:33:12.866Z,6.82
2023-05-22T17:35:40.280Z,6.30
2023-05-22T17:38:08.554Z,6.80
2023-05-22T17:40:43.836Z,5.90
2023-05-22T17:43:12.982Z,7.72
2023-05-22T17:45:40.210Z,6.90
2023-05-22T17:48:07.866Z,7.32
2023-05-22T17:50:35.418Z,6.37
2023-05-22T17:53:03.359Z,7.05
2023-05-22T17:55:30.468Z,6.80
2023-05-22T17:57:58.724Z,6.40
2023-05-22T18:00:25.916Z,5.47
2023-05-22T18:02:53.506Z,6.30
2023-05-22T18:05:20.888Z,5.32
2023-05-22T18:07:48.282Z,4.93
2023-05-22T18:10:15.777Z,6.35
2023-05-22T18:12:42.998Z,6.07
2023-05-22T18:15:12.122Z,6.78
2023-05-22T18:17:41.258Z,7.00
2023-05-22T18:20:12.098Z,7.35
2023-05-22T18:22:39.900Z,6.95
2023-05-22T18:25:07.551Z,5.82
2023-05-22T18:27:36.056Z,5.32
2023-05-22T18:30:05.227Z,6.53
2023-05-22T18:32:32.524Z,6.43
2023-05-22T18:35:02.832Z,6.85
2023-05-22T18:37:30.354Z,6.43
2023-05-22T18:39:57.661Z,6.15
2023-05-22T18:42:24.811Z,6.32
2023-05-22T18:44:52.297Z,6.22
2023-05-22T18:47:19.350Z,6.75
2023-05-22T18:49:46.365Z,6.93
2023-05-22T18:52:13.972Z,7.47
2023-05-22T18:54:41.102Z,6.78
2023-05-22T18:57:08.228Z,6.53
2023-05-22T18:59:37.198Z,6.93
2023-05-22T19:02:04.559Z,6.22
2023-05-22T19:04:31.667Z,7.37
2023-05-22T19:06:59.063Z,6.78
2023-05-22T19:09:26.188Z,6.45
2023-05-22T19:11:53.284Z,7.25
2023-05-22T19:14:20.594Z,7.37
2023-05-22T19:16:47.662Z,6.20
2023-05-22T19:19:14.977Z,5.60
2023-05-22T19:21:42.389Z,5.68
2023-05-22T19:24:09.599Z,5.90
2023-05-22T19:26:36.640Z,6.18
2023-05-22T19:29:04.046Z,6.07
2023-05-22T19:31:31.248Z,6.15
2023-05-22T19:33:58.328Z,5.93
2023-05-22T19:36:25.717Z,7.15
2023-05-22T19:38:53.599Z,5.95
2023-05-22T19:41:23.107Z,6.25
2023-05-22T19:43:51.287Z,6.30
2023-05-22T19:46:18.501Z,6.55
2023-05-22T19:48:45.915Z,6.10
2023-05-22T19:51:13.287Z,6.37
2023-05-22T19:53:41.525Z,6.37
2023-05-22T19:56:08.665Z,6.30
2023-05-22T19:58:35.970Z,6.25
2023-05-22T20:01:03.066Z,6.68
2023-05-22T20:03:30.579Z,7.28
2023-05-22T20:05:57.798Z,6.37
2023-05-22T20:08:25.469Z,6.47
2023-05-22T20:10:53.296Z,6.43
2023-05-22T20:13:20.464Z,5.78
2023-05-22T20:15:51.142Z,5.45
2023-05-22T20:18:18.626Z,5.72
2023-05-22T20:20:45.693Z,6.53
2023-05-22T20:23:12.753Z,5.15
2023-05-22T20:25:40.332Z,5.35
2023-05-22T20:28:07.510Z,5.82
2023-05-22T20:30:34.549Z,6.37
2023-05-22T20:33:01.999Z,5.35
2023-05-22T20:35:30.535Z,7.75
2023-05-22T20:38:04.522Z,6.80
2023-05-22T20:40:34.735Z,6.57
2023-05-22T20:43:04.714Z,6.28
2023-05-22T20:45:32.740Z,6.72
2023-05-22T20:48:00.458Z,8.90
2023-05-22T20:50:27.540Z,7.25
2023-05-22T20:52:54.892Z,6.85
2023-05-22T20:55:21.914Z,6.18
2023-05-22T20:57:48.955Z,6.12
2023-05-22T21:00:16.577Z,6.07
2023-05-22T21:02:43.711Z,6.25
2023-05-22T21:05:11.171Z,5.75
2023-05-22T21:07:38.445Z,6.20
2023-05-22T21:10:05.981Z,7.03
2023-05-22T21:12:33.003Z,5.45
2023-05-22T21:15:00.324Z,5.75
2023-05-22T21:17:27.541Z,5.45
2023-05-22T21:19:54.699Z,5.50
2023-05-22T21:22:21.989Z,5.32
2023-05-22T21:24:49.265Z,6.18
2023-05-22T21:27:16.420Z,6.30
2023-05-22T21:29:43.783Z,6.07
2023-05-22T21:32:10.889Z,5.15
2023-05-22T21:34:37.998Z,5.72
2023-05-22T21:37:05.542Z,6.00
2023-05-22T21:39:32.674Z,5.40
2023-05-22T21:41:59.926Z,5.90
2023-05-22T21:44:27.381Z,5.57
2023-05-22T21:46:55.874Z,5.55
2023-05-22T21:49:23.122Z,5.10
2023-05-22T21:51:50.424Z,5.12
2023-05-22T21:54:17.566Z,5.75
2023-05-22T21:56:44.772Z,5.35
2023-05-22T21:59:12.179Z,5.00
2023-05-22T22:01:39.371Z,5.35
2023-05-22T22:04:06.950Z,4.82
2023-05-22T22:06:34.219Z,5.30
2023-05-22T22:09:03.329Z,4.95
2023-05-22T22:11:30.770Z,4.50
2023-05-22T22:13:57.917Z,4.57
2023-05-22T22:16:25.134Z,5.60
2023-05-22T22:18:52.515Z,4.87
2023-05-22T22:21:19.850Z,4.85
2023-05-22T22:23:46.995Z,4.53
2023-05-22T22:26:14.427Z,4.22
2023-05-22T22:28:41.582Z,4.95
2023-05-22T22:31:08.765Z,4.90
2023-05-22T22:33:36.185Z,5.15
2023-05-22T22:36:03.593Z,4.75
2023-05-22T22:38:32.885Z,4.78
2023-05-22T22:41:00.444Z,4.68
2023-05-22T22:43:27.562Z,5.30
2023-05-22T22:45:55.848Z,4.78
2023-05-22T22:48:23.412Z,5.03
2023-05-22T22:50:52.456Z,4.80
2023-05-22T22:53:19.788Z,4.50
2023-05-22T22:55:49.384Z,4.78
2023-05-22T22:58:18.753Z,4.85
2023-05-22T23:00:45.938Z,4.95
2023-05-22T23:03:13.332Z,5.22
2023-05-22T23:05:40.717Z,4.57
2023-05-22T23:08:08.090Z,5.50
2023-05-22T23:10:35.584Z,5.12
2023-05-22T23:13:02.915Z,5.22
2023-05-22T23:15:30.305Z,5.60
2023-05-22T23:17:57.693Z,5.00
2023-05-22T23:20:24.818Z,4.87
2023-05-22T23:22:52.690Z,4.60
2023-05-22T23:25:20.201Z,4.62
2023-05-22T23:27:47.383Z,4.35
2023-05-22T23:30:14.601Z,4.78
2023-05-22T23:32:42.004Z,5.37
2023-05-22T23:35:10.906Z,4.50
2023-05-22T23:37:38.147Z,5.15
2023-05-22T23:40:06.764Z,5.60
2023-05-22T23:42:35.640Z,4.55
2023-05-22T23:45:04.232Z,4.50
2023-05-22T23:47:31.722Z,4.53
2023-05-22T23:49:59.696Z,4.60
2023-05-22T23:52:27.095Z,4.45
2023-05-22T23:54:54.553Z,3.87
2023-05-22T23:57:21.654Z,4.50
2023-05-22T23:59:48.768Z,5.00
